Terminal Aerodrome Forecast
Issued by NWS Billings, MT

Home | Current Version | Previous Version | Graphics & Text | Print | Product List | Glossary On
Versions: 1 2 3 4 5 6 7 8 9 10 11 12 13 14 15 16 17 18 19 20 21 22 23 24 25 26 27
000
FTUS45 KBYZ 221737
TAFMLS
TAF
KMLS 221737Z 2218/2318 10015G25KT P6SM VCSH SCT025 OVC035
     FM230200 08015G25KT 6SM -SHRA BR SCT010 BKN025 OVC030
     FM230600 07014KT 3SM -RA BR SCT009 BKN015 OVC020
     FM231000 07011KT P6SM VCSH SCT015 OVC025=

USA.gov is the U.S. government's official web portal to all federal, state and local government web resources and services.